sensor_id;sensor_type;location;lat;lon;timestamp;temperature;humidity
10417;DHT22;62605;49.432;8.680;2023-07-20T00:01:10;20.80;99.90
10417;DHT22;62605;49.432;8.680;2023-07-20T00:03:44;20.70;99.90
10417;DHT22;62605;49.432;8.680;2023-07-20T00:06:25;20.70;99.90
10417;DHT22;62605;49.432;8.680;2023-07-20T00:09:03;20.60;99.90
10417;DHT22;62605;49.432;8.680;2023-07-20T00:11:40;20.60;99.90
10417;DHT22;62605;49.432;8.680;2023-07-20T00:14:11;20.60;99.90
10417;DHT22;62605;49.432;8.680;2023-07-20T00:16:41;20.60;99.90
10417;DHT22;62605;49.432;8.680;2023-07-20T00:19:11;20.60;99.90
10417;DHT22;62605;49.432;8.680;2023-07-20T00:21:41;20.50;99.90
10417;DHT22;62605;49.432;8.680;2023-07-20T00:24:14;20.50;99.90
10417;DHT22;62605;49.432;8.680;2023-07-20T00:26:52;20.50;99.90
10417;DHT22;62605;49.432;8.680;2023-07-20T00:29:45;20.40;99.90
10417;DHT22;62605;49.432;8.680;2023-07-20T00:32:18;20.50;99.90
10417;DHT22;62605;49.432;8.680;2023-07-20T00:34:51;20.30;99.90
10417;DHT22;62605;49.432;8.680;2023-07-20T00:37:22;20.30;99.90
10417;DHT22;62605;49.432;8.680;2023-07-20T00:39:56;20.20;99.90
10417;DHT22;62605;49.432;8.680;2023-07-20T00:42:38;20.20;99.90
10417;DHT22;62605;49.432;8.680;2023-07-20T00:45:12;20.10;99.90
10417;DHT22;62605;49.432;8.680;2023-07-20T00:47:51;20.00;99.90
10417;DHT22;62605;49.432;8.680;2023-07-20T00:50:27;20.10;1.00
10417;DHT22;62605;49.432;8.680;2023-07-20T00:53:07;20.10;99.90
10417;DHT22;62605;49.432;8.680;2023-07-20T00:55:43;20.10;99.90
10417;DHT22;62605;49.432;8.680;2023-07-20T00:58:18;20.00;99.90
10417;DHT22;62605;49.432;8.680;2023-07-20T01:00:53;20.00;99.90
10417;DHT22;62605;49.432;8.680;2023-07-20T01:03:43;20.00;99.90
10417;DHT22;62605;49.432;8.680;2023-07-20T01:06:29;20.00;99.90
10417;DHT22;62605;49.432;8.680;2023-07-20T01:09:24;20.00;99.90
10417;DHT22;62605;49.432;8.680;2023-07-20T01:12:06;19.90;1.00
10417;DHT22;62605;49.432;8.680;2023-07-20T01:14:49;19.90;1.00
10417;DHT22;62605;49.432;8.680;2023-07-20T01:17:42;19.80;1.00
10417;DHT22;62605;49.432;8.680;2023-07-20T01:20:18;19.70;1.00
10417;DHT22;62605;49.432;8.680;2023-07-20T01:23:27;19.60;1.00
10417;DHT22;62605;49.432;8.680;2023-07-20T01:26:23;19.60;1.00
10417;DHT22;62605;49.432;8.680;2023-07-20T01:29:17;19.50;1.00
10417;DHT22;62605;49.432;8.680;2023-07-20T01:31:58;19.50;1.00
10417;DHT22;62605;49.432;8.680;2023-07-20T01:34:36;19.30;1.00
10417;DHT22;62605;49.432;8.680;2023-07-20T01:37:11;19.20;1.00
10417;DHT22;62605;49.432;8.680;2023-07-20T01:39:39;19.20;1.00
10417;DHT22;62605;49.432;8.680;2023-07-20T01:42:08;19.10;1.00
10417;DHT22;62605;49.432;8.680;2023-07-20T01:44:38;19.10;1.00
10417;DHT22;62605;49.432;8.680;2023-07-20T01:47:09;19.00;1.00
10417;DHT22;62605;49.432;8.680;2023-07-20T01:49:47;19.00;1.00
10417;DHT22;62605;49.432;8.680;2023-07-20T01:52:28;18.90;1.00
10417;DHT22;62605;49.432;8.680;2023-07-20T01:55:15;18.90;1.00
10417;DHT22;62605;49.432;8.680;2023-07-20T01:57:58;18.90;1.00
10417;DHT22;62605;49.432;8.680;2023-07-20T02:00:37;18.70;1.00
10417;DHT22;62605;49.432;8.680;2023-07-20T02:03:10;18.70;1.00
10417;DHT22;62605;49.432;8.680;2023-07-20T02:05:48;18.70;1.00
10417;DHT22;62605;49.432;8.680;2023-07-20T02:08:17;18.90;1.00
10417;DHT22;62605;49.432;8.680;2023-07-20T02:10:47;18.70;1.00
10417;DHT22;62605;49.432;8.680;2023-07-20T02:13:17;18.60;1.00
10417;DHT22;62605;49.432;8.680;2023-07-20T02:15:46;18.60;1.00
10417;DHT22;62605;49.432;8.680;2023-07-20T02:18:17;18.50;1.00
10417;DHT22;62605;49.432;8.680;2023-07-20T02:20:46;18.50;1.00
10417;DHT22;62605;49.432;8.680;2023-07-20T02:23:15;18.50;1.00
10417;DHT22;62605;49.432;8.680;2023-07-20T02:25:44;18.40;1.00
10417;DHT22;62605;49.432;8.680;2023-07-20T02:28:16;18.40;1.00
10417;DHT22;62605;49.432;8.680;2023-07-20T02:30:45;18.20;1.00
10417;DHT22;62605;49.432;8.680;2023-07-20T02:33:21;18.20;1.00
10417;DHT22;62605;49.432;8.680;2023-07-20T02:35:51;18.10;1.00
10417;DHT22;62605;49.432;8.680;2023-07-20T02:38:20;18.20;1.00
10417;DHT22;62605;49.432;8.680;2023-07-20T02:40:52;18.10;1.00
10417;DHT22;62605;49.432;8.680;2023-07-20T02:43:22;18.00;1.00
10417;DHT22;62605;49.432;8.680;2023-07-20T02:45:52;17.90;1.00
10417;DHT22;62605;49.432;8.680;2023-07-20T02:48:22;18.00;1.00
10417;DHT22;62605;49.432;8.680;2023-07-20T02:50:50;17.90;1.00
10417;DHT22;62605;49.432;8.680;2023-07-20T02:53:19;17.90;1.00
10417;DHT22;62605;49.432;8.680;2023-07-20T02:55:48;17.80;1.00
10417;DHT22;62605;49.432;8.680;2023-07-20T02:58:17;17.80;1.00
10417;DHT22;62605;49.432;8.680;2023-07-20T03:00:50;17.70;1.00
10417;DHT22;62605;49.432;8.680;2023-07-20T03:03:19;17.70;1.00
10417;DHT22;62605;49.432;8.680;2023-07-20T03:05:50;17.60;1.00
10417;DHT22;62605;49.432;8.680;2023-07-20T03:08:21;17.60;1.00
10417;DHT22;62605;49.432;8.680;2023-07-20T03:10:50;17.50;1.00
10417;DHT22;62605;49.432;8.680;2023-07-20T03:13:22;17.60;1.00
10417;DHT22;62605;49.432;8.680;2023-07-20T03:15:52;17.50;1.00
10417;DHT22;62605;49.432;8.680;2023-07-20T03:18:21;17.50;1.00
10417;DHT22;62605;49.432;8.680;2023-07-20T03:20:56;17.30;1.00
10417;DHT22;62605;49.432;8.680;2023-07-20T03:23:26;17.30;1.00
10417;DHT22;62605;49.432;8.680;2023-07-20T03:25:55;17.40;1.00
10417;DHT22;62605;49.432;8.680;2023-07-20T03:28:25;17.40;1.00
10417;DHT22;62605;49.432;8.680;2023-07-20T03:30:55;17.40;1.00
10417;DHT22;62605;49.432;8.680;2023-07-20T03:33:26;17.40;1.00
10417;DHT22;62605;49.432;8.680;2023-07-20T03:35:59;17.40;1.00
10417;DHT22;62605;49.432;8.680;2023-07-20T03:38:28;17.40;1.00
10417;DHT22;62605;49.432;8.680;2023-07-20T03:40:57;17.40;1.00
10417;DHT22;62605;49.432;8.680;2023-07-20T03:43:27;17.60;1.00
10417;DHT22;62605;49.432;8.680;2023-07-20T03:45:56;17.50;1.00
10417;DHT22;62605;49.432;8.680;2023-07-20T03:48:24;17.60;1.00
10417;DHT22;62605;49.432;8.680;2023-07-20T03:50:53;17.60;1.00
10417;DHT22;62605;49.432;8.680;2023-07-20T03:53:28;17.60;1.00
10417;DHT22;62605;49.432;8.680;2023-07-20T03:56:00;17.60;1.00
10417;DHT22;62605;49.432;8.680;2023-07-20T03:58:33;17.50;1.00
10417;DHT22;62605;49.432;8.680;2023-07-20T04:01:06;17.50;1.00
10417;DHT22;62605;49.432;8.680;2023-07-20T04:03:38;17.60;1.00
10417;DHT22;62605;49.432;8.680;2023-07-20T04:06:10;17.60;1.00
10417;DHT22;62605;49.432;8.680;2023-07-20T04:08:42;17.70;1.00
10417;DHT22;62605;49.432;8.680;2023-07-20T04:11:16;17.80;1.00
10417;DHT22;62605;49.432;8.680;2023-07-20T04:13:45;17.80;1.00
10417;DHT22;62605;49.432;8.680;2023-07-20T04:16:15;17.80;1.00
10417;DHT22;62605;49.432;8.680;2023-07-20T04:18:46;17.90;1.00
10417;DHT22;62605;49.432;8.680;2023-07-20T04:21:16;17.90;1.00
10417;DHT22;62605;49.432;8.680;2023-07-20T04:23:50;18.00;1.00
10417;DHT22;62605;49.432;8.680;2023-07-20T04:26:19;18.10;1.00
10417;DHT22;62605;49.432;8.680;2023-07-20T04:28:53;18.10;1.00
10417;DHT22;62605;49.432;8.680;2023-07-20T04:31:24;18.20;1.00
10417;DHT22;62605;49.432;8.680;2023-07-20T04:33:57;18.20;1.00
10417;DHT22;62605;49.432;8.680;2023-07-20T04:37:00;18.20;1.00
10417;DHT22;62605;49.432;8.680;2023-07-20T04:39:41;18.30;1.00
10417;DHT22;62605;49.432;8.680;2023-07-20T04:42:16;18.40;1.00
10417;DHT22;62605;49.432;8.680;2023-07-20T04:45:20;18.30;1.00
10417;DHT22;62605;49.432;8.680;2023-07-20T04:47:55;18.30;1.00
10417;DHT22;62605;49.432;8.680;2023-07-20T04:50:41;18.30;1.00
10417;DHT22;62605;49.432;8.680;2023-07-20T04:59:08;18.40;1.00
10417;DHT22;62605;49.432;8.680;2023-07-20T05:04:57;18.50;1.00
10417;DHT22;62605;49.432;8.680;2023-07-20T05:07:24;18.50;1.00
10417;DHT22;62605;49.432;8.680;2023-07-20T05:09:51;18.50;1.00
10417;DHT22;62605;49.432;8.680;2023-07-20T05:12:18;18.50;1.00
10417;DHT22;62605;49.432;8.680;2023-07-20T05:14:46;18.60;1.00
10417;DHT22;62605;49.432;8.680;2023-07-20T05:17:14;18.50;1.00
10417;DHT22;62605;49.432;8.680;2023-07-20T05:19:41;18.50;1.00
10417;DHT22;62605;49.432;8.680;2023-07-20T05:22:09;18.50;1.00
10417;DHT22;62605;49.432;8.680;2023-07-20T05:24:40;18.50;1.00
10417;DHT22;62605;49.432;8.680;2023-07-20T05:27:07;18.50;1.00
10417;DHT22;62605;49.432;8.680;2023-07-20T05:29:34;18.70;1.00
10417;DHT22;62605;49.432;8.680;2023-07-20T05:32:03;18.80;1.00
10417;DHT22;62605;49.432;8.680;2023-07-20T05:34:32;18.80;1.00
10417;DHT22;62605;49.432;8.680;2023-07-20T05:37:14;18.80;1.00
10417;DHT22;62605;49.432;8.680;2023-07-20T05:39:48;19.00;1.00
10417;DHT22;62605;49.432;8.680;2023-07-20T05:42:15;19.10;1.00
10417;DHT22;62605;49.432;8.680;2023-07-20T05:44:42;19.30;1.00
10417;DHT22;62605;49.432;8.680;2023-07-20T05:47:19;19.40;1.00
10417;DHT22;62605;49.432;8.680;2023-07-20T05:49:47;19.50;1.00
10417;DHT22;62605;49.432;8.680;2023-07-20T05:52:15;19.60;1.00
10417;DHT22;62605;49.432;8.680;2023-07-20T05:54:42;19.70;1.00
10417;DHT22;62605;49.432;8.680;2023-07-20T05:57:10;19.60;1.00
10417;DHT22;62605;49.432;8.680;2023-07-20T05:59:37;19.70;1.00
10417;DHT22;62605;49.432;8.680;2023-07-20T06:02:06;19.70;1.00
10417;DHT22;62605;49.432;8.680;2023-07-20T06:04:35;19.70;1.00
10417;DHT22;62605;49.432;8.680;2023-07-20T06:07:02;19.70;1.00
10417;DHT22;62605;49.432;8.680;2023-07-20T06:09:29;19.60;1.00
10417;DHT22;62605;49.432;8.680;2023-07-20T06:11:57;19.70;1.00
10417;DHT22;62605;49.432;8.680;2023-07-20T06:14:24;19.90;1.00
10417;DHT22;62605;49.432;8.680;2023-07-20T06:16:51;19.90;1.00
10417;DHT22;62605;49.432;8.680;2023-07-20T06:19:18;19.80;1.00
10417;DHT22;62605;49.432;8.680;2023-07-20T06:21:46;19.90;1.00
10417;DHT22;62605;49.432;8.680;2023-07-20T06:24:13;20.00;1.00
10417;DHT22;62605;49.432;8.680;2023-07-20T06:26:40;19.90;1.00
10417;DHT22;62605;49.432;8.680;2023-07-20T06:29:07;19.80;1.00
10417;DHT22;62605;49.432;8.680;2023-07-20T06:31:36;19.50;1.00
10417;DHT22;62605;49.432;8.680;2023-07-20T06:34:03;19.40;1.00
10417;DHT22;62605;49.432;8.680;2023-07-20T06:36:37;19.20;1.00
10417;DHT22;62605;49.432;8.680;2023-07-20T06:39:12;19.30;1.00
10417;DHT22;62605;49.432;8.680;2023-07-20T06:41:42;19.40;1.00
10417;DHT22;62605;49.432;8.680;2023-07-20T06:44:09;19.40;1.00
10417;DHT22;62605;49.432;8.680;2023-07-20T06:46:36;19.60;1.00
10417;DHT22;62605;49.432;8.680;2023-07-20T06:49:06;19.50;1.00
10417;DHT22;62605;49.432;8.680;2023-07-20T06:51:33;19.40;1.00
10417;DHT22;62605;49.432;8.680;2023-07-20T06:54:01;19.50;1.00
10417;DHT22;62605;49.432;8.680;2023-07-20T06:56:31;19.40;1.00
10417;DHT22;62605;49.432;8.680;2023-07-20T06:58:58;19.30;1.00
10417;DHT22;62605;49.432;8.680;2023-07-20T07:01:25;19.50;1.00
10417;DHT22;62605;49.432;8.680;2023-07-20T07:03:52;19.70;1.00
10417;DHT22;62605;49.432;8.680;2023-07-20T07:06:19;19.80;1.00
10417;DHT22;62605;49.432;8.680;2023-07-20T07:08:48;19.60;1.00
10417;DHT22;62605;49.432;8.680;2023-07-20T07:11:15;19.80;1.00
10417;DHT22;62605;49.432;8.680;2023-07-20T07:13:43;20.00;1.00
10417;DHT22;62605;49.432;8.680;2023-07-20T07:16:12;19.90;1.00
10417;DHT22;62605;49.432;8.680;2023-07-20T07:18:40;20.20;1.00
10417;DHT22;62605;49.432;8.680;2023-07-20T07:21:07;20.40;1.00
10417;DHT22;62605;49.432;8.680;2023-07-20T07:23:38;20.30;1.00
10417;DHT22;62605;49.432;8.680;2023-07-20T07:26:11;20.50;1.00
10417;DHT22;62605;49.432;8.680;2023-07-20T07:28:40;20.70;1.00
10417;DHT22;62605;49.432;8.680;2023-07-20T07:31:09;20.70;1.00
10417;DHT22;62605;49.432;8.680;2023-07-20T07:33:36;20.70;1.00
10417;DHT22;62605;49.432;8.680;2023-07-20T07:36:03;20.90;1.00
10417;DHT22;62605;49.432;8.680;2023-07-20T07:38:30;21.10;1.00
10417;DHT22;62605;49.432;8.680;2023-07-20T07:40:58;21.30;1.00
10417;DHT22;62605;49.432;8.680;2023-07-20T07:43:25;20.90;1.00
10417;DHT22;62605;49.432;8.680;2023-07-20T07:45:54;21.30;1.00
10417;DHT22;62605;49.432;8.680;2023-07-20T07:48:22;21.40;1.00
10417;DHT22;62605;49.432;8.680;2023-07-20T07:50:50;21.60;1.00
10417;DHT22;62605;49.432;8.680;2023-07-20T07:53:17;21.80;1.00
10417;DHT22;62605;49.432;8.680;2023-07-20T07:55:47;21.90;1.00
10417;DHT22;62605;49.432;8.680;2023-07-20T07:58:14;22.30;1.00
10417;DHT22;62605;49.432;8.680;2023-07-20T08:00:41;22.20;1.00
10417;DHT22;62605;49.432;8.680;2023-07-20T08:03:09;22.20;1.00
10417;DHT22;62605;49.432;8.680;2023-07-20T08:05:37;22.00;1.00
10417;DHT22;62605;49.432;8.680;2023-07-20T08:08:04;22.30;1.00
10417;DHT22;62605;49.432;8.680;2023-07-20T08:10:31;22.60;1.00
10417;DHT22;62605;49.432;8.680;2023-07-20T08:12:59;22.50;1.00
10417;DHT22;62605;49.432;8.680;2023-07-20T08:15:26;22.60;1.00
10417;DHT22;62605;49.432;8.680;2023-07-20T08:17:52;22.80;1.00
10417;DHT22;62605;49.432;8.680;2023-07-20T08:20:20;22.90;1.00
10417;DHT22;62605;49.432;8.680;2023-07-20T08:22:53;22.50;1.00
10417;DHT22;62605;49.432;8.680;2023-07-20T08:25:20;22.10;1.00
10417;DHT22;62605;49.432;8.680;2023-07-20T08:27:47;21.80;1.00
10417;DHT22;62605;49.432;8.680;2023-07-20T08:30:14;21.60;1.00
10417;DHT22;62605;49.432;8.680;2023-07-20T08:32:44;21.50;1.00
10417;DHT22;62605;49.432;8.680;2023-07-20T08:35:11;21.60;1.00
10417;DHT22;62605;49.432;8.680;2023-07-20T08:37:38;22.10;1.00
10417;DHT22;62605;49.432;8.680;2023-07-20T08:40:08;22.20;1.00
10417;DHT22;62605;49.432;8.680;2023-07-20T08:42:36;22.10;1.00
10417;DHT22;62605;49.432;8.680;2023-07-20T08:45:06;22.30;1.00
10417;DHT22;62605;49.432;8.680;2023-07-20T08:47:35;22.50;1.00
10417;DHT22;62605;49.432;8.680;2023-07-20T08:50:04;22.50;1.00
10417;DHT22;62605;49.432;8.680;2023-07-20T08:52:34;22.40;1.00
10417;DHT22;62605;49.432;8.680;2023-07-20T08:55:02;22.60;1.00
10417;DHT22;62605;49.432;8.680;2023-07-20T08:57:33;22.80;1.00
10417;DHT22;62605;49.432;8.680;2023-07-20T09:00:02;22.40;1.00
10417;DHT22;62605;49.432;8.680;2023-07-20T09:02:35;22.40;1.00
10417;DHT22;62605;49.432;8.680;2023-07-20T09:05:08;22.40;1.00
10417;DHT22;62605;49.432;8.680;2023-07-20T09:07:36;22.30;1.00
10417;DHT22;62605;49.432;8.680;2023-07-20T09:10:03;22.70;1.00
10417;DHT22;62605;49.432;8.680;2023-07-20T09:12:35;22.80;1.00
10417;DHT22;62605;49.432;8.680;2023-07-20T09:15:02;22.80;1.00
10417;DHT22;62605;49.432;8.680;2023-07-20T09:17:29;23.40;1.00
10417;DHT22;62605;49.432;8.680;2023-07-20T09:19:56;23.30;1.00
10417;DHT22;62605;49.432;8.680;2023-07-20T09:22:29;23.20;1.00
10417;DHT22;62605;49.432;8.680;2023-07-20T09:24:57;23.50;1.00
10417;DHT22;62605;49.432;8.680;2023-07-20T09:27:35;23.60;1.00
10417;DHT22;62605;49.432;8.680;2023-07-20T09:30:04;23.50;1.00
10417;DHT22;62605;49.432;8.680;2023-07-20T09:32:38;23.40;1.00
10417;DHT22;62605;49.432;8.680;2023-07-20T09:35:06;23.70;1.00
10417;DHT22;62605;49.432;8.680;2023-07-20T09:37:33;23.90;1.00
10417;DHT22;62605;49.432;8.680;2023-07-20T09:40:01;23.90;1.00
10417;DHT22;62605;49.432;8.680;2023-07-20T09:42:28;23.60;1.00
10417;DHT22;62605;49.432;8.680;2023-07-20T09:44:56;23.70;1.00
10417;DHT22;62605;49.432;8.680;2023-07-20T09:47:24;23.80;1.00
10417;DHT22;62605;49.432;8.680;2023-07-20T09:49:58;23.70;1.00
10417;DHT22;62605;49.432;8.680;2023-07-20T09:52:26;23.90;1.00
10417;DHT22;62605;49.432;8.680;2023-07-20T09:54:54;23.80;1.00
10417;DHT22;62605;49.432;8.680;2023-07-20T09:57:22;24.50;1.00
10417;DHT22;62605;49.432;8.680;2023-07-20T09:59:49;24.30;1.00
10417;DHT22;62605;49.432;8.680;2023-07-20T10:02:21;24.00;1.00
10417;DHT22;62605;49.432;8.680;2023-07-20T10:04:54;23.60;1.00
10417;DHT22;62605;49.432;8.680;2023-07-20T10:07:22;23.30;1.00
10417;DHT22;62605;49.432;8.680;2023-07-20T10:09:53;23.00;1.00
10417;DHT22;62605;49.432;8.680;2023-07-20T10:12:22;23.50;1.00
10417;DHT22;62605;49.432;8.680;2023-07-20T10:14:54;23.60;1.00
10417;DHT22;62605;49.432;8.680;2023-07-20T10:17:26;23.20;1.00
10417;DHT22;62605;49.432;8.680;2023-07-20T10:19:56;23.60;1.00
10417;DHT22;62605;49.432;8.680;2023-07-20T10:22:25;23.90;1.00
10417;DHT22;62605;49.432;8.680;2023-07-20T10:24:54;23.60;1.00
10417;DHT22;62605;49.432;8.680;2023-07-20T10:27:24;24.00;1.00
10417;DHT22;62605;49.432;8.680;2023-07-20T10:29:53;24.30;1.00
10417;DHT22;62605;49.432;8.680;2023-07-20T10:32:20;25.00;99.90
10417;DHT22;62605;49.432;8.680;2023-07-20T10:34:52;25.10;99.90
10417;DHT22;62605;49.432;8.680;2023-07-20T10:37:47;25.50;99.90
10417;DHT22;62605;49.432;8.680;2023-07-20T10:40:30;25.10;99.90
10417;DHT22;62605;49.432;8.680;2023-07-20T10:42:59;25.10;99.90
10417;DHT22;62605;49.432;8.680;2023-07-20T10:45:37;24.90;99.90
10417;DHT22;62605;49.432;8.680;2023-07-20T10:48:07;24.70;99.90
10417;DHT22;62605;49.432;8.680;2023-07-20T10:50:41;24.90;99.90
10417;DHT22;62605;49.432;8.680;2023-07-20T10:53:13;25.30;99.90
10417;DHT22;62605;49.432;8.680;2023-07-20T10:55:41;25.20;99.90
10417;DHT22;62605;49.432;8.680;2023-07-20T10:58:10;25.30;99.90
10417;DHT22;62605;49.432;8.680;2023-07-20T11:00:39;25.40;99.90
10417;DHT22;62605;49.432;8.680;2023-07-20T11:03:29;25.50;99.90
10417;DHT22;62605;49.432;8.680;2023-07-20T11:05:58;24.90;99.90
10417;DHT22;62605;49.432;8.680;2023-07-20T11:08:41;25.00;99.90
10417;DHT22;62605;49.432;8.680;2023-07-20T11:11:24;25.00;99.90
10417;DHT22;62605;49.432;8.680;2023-07-20T11:13:56;25.20;99.90
10417;DHT22;62605;49.432;8.680;2023-07-20T11:16:34;25.40;99.90
10417;DHT22;62605;49.432;8.680;2023-07-20T11:19:01;25.30;99.90
10417;DHT22;62605;49.432;8.680;2023-07-20T11:21:36;25.10;99.90
10417;DHT22;62605;49.432;8.680;2023-07-20T11:24:04;25.20;99.90
10417;DHT22;62605;49.432;8.680;2023-07-20T11:26:40;25.10;99.90
10417;DHT22;62605;49.432;8.680;2023-07-20T11:29:08;25.10;99.90
10417;DHT22;62605;49.432;8.680;2023-07-20T11:31:36;25.30;99.90
10417;DHT22;62605;49.432;8.680;2023-07-20T11:34:03;25.20;99.90
10417;DHT22;62605;49.432;8.680;2023-07-20T11:36:33;25.10;99.90
10417;DHT22;62605;49.432;8.680;2023-07-20T11:39:00;24.80;99.90
10417;DHT22;62605;49.432;8.680;2023-07-20T11:41:30;24.20;99.90
10417;DHT22;62605;49.432;8.680;2023-07-20T11:43:57;24.10;99.90
10417;DHT22;62605;49.432;8.680;2023-07-20T11:46:25;25.10;99.90
10417;DHT22;62605;49.432;8.680;2023-07-20T11:48:57;25.00;99.90
10417;DHT22;62605;49.432;8.680;2023-07-20T11:51:26;24.70;99.90
10417;DHT22;62605;49.432;8.680;2023-07-20T11:53:56;25.10;99.90
10417;DHT22;62605;49.432;8.680;2023-07-20T11:56:24;25.60;99.90
10417;DHT22;62605;49.432;8.680;2023-07-20T11:58:54;26.20;99.90
10417;DHT22;62605;49.432;8.680;2023-07-20T12:01:23;26.30;99.90
10417;DHT22;62605;49.432;8.680;2023-07-20T12:03:51;25.70;99.90
10417;DHT22;62605;49.432;8.680;2023-07-20T12:06:22;25.20;99.90
10417;DHT22;62605;49.432;8.680;2023-07-20T12:08:49;25.00;99.90
10417;DHT22;62605;49.432;8.680;2023-07-20T12:11:35;25.00;99.90
10417;DHT22;62605;49.432;8.680;2023-07-20T12:14:03;25.60;99.90
10417;DHT22;62605;49.432;8.680;2023-07-20T12:16:30;25.90;99.90
10417;DHT22;62605;49.432;8.680;2023-07-20T12:19:01;26.20;99.90
10417;DHT22;62605;49.432;8.680;2023-07-20T12:21:29;26.40;99.90
10417;DHT22;62605;49.432;8.680;2023-07-20T12:23:56;26.90;99.90
10417;DHT22;62605;49.432;8.680;2023-07-20T12:26:24;26.60;99.90
10417;DHT22;62605;49.432;8.680;2023-07-20T12:28:53;26.80;99.90
10417;DHT22;62605;49.432;8.680;2023-07-20T12:31:20;27.00;99.90
10417;DHT22;62605;49.432;8.680;2023-07-20T12:33:48;27.50;99.90
10417;DHT22;62605;49.432;8.680;2023-07-20T12:36:15;27.40;99.90
10417;DHT22;62605;49.432;8.680;2023-07-20T12:38:42;27.30;99.90
10417;DHT22;62605;49.432;8.680;2023-07-20T12:41:10;27.30;99.90
10417;DHT22;62605;49.432;8.680;2023-07-20T12:43:39;27.00;99.90
10417;DHT22;62605;49.432;8.680;2023-07-20T12:46:08;27.10;99.90
10417;DHT22;62605;49.432;8.680;2023-07-20T12:48:37;26.90;99.90
10417;DHT22;62605;49.432;8.680;2023-07-20T12:51:05;27.40;99.90
10417;DHT22;62605;49.432;8.680;2023-07-20T12:53:33;26.80;99.90
10417;DHT22;62605;49.432;8.680;2023-07-20T12:56:01;26.80;99.90
10417;DHT22;62605;49.432;8.680;2023-07-20T12:58:28;27.30;99.90
10417;DHT22;62605;49.432;8.680;2023-07-20T13:00:55;27.00;99.90
10417;DHT22;62605;49.432;8.680;2023-07-20T13:03:23;26.60;99.90
10417;DHT22;62605;49.432;8.680;2023-07-20T13:05:51;26.80;99.90
10417;DHT22;62605;49.432;8.680;2023-07-20T13:08:18;26.50;99.90
10417;DHT22;62605;49.432;8.680;2023-07-20T13:10:45;27.00;99.90
10417;DHT22;62605;49.432;8.680;2023-07-20T13:13:12;27.50;99.90
10417;DHT22;62605;49.432;8.680;2023-07-20T13:15:43;28.00;99.90
10417;DHT22;62605;49.432;8.680;2023-07-20T13:18:10;27.10;99.90
10417;DHT22;62605;49.432;8.680;2023-07-20T13:20:39;27.00;99.90
10417;DHT22;62605;49.432;8.680;2023-07-20T13:23:06;26.20;99.90
10417;DHT22;62605;49.432;8.680;2023-07-20T13:25:33;26.00;99.90
10417;DHT22;62605;49.432;8.680;2023-07-20T13:28:00;26.20;99.90
10417;DHT22;62605;49.432;8.680;2023-07-20T13:30:27;26.30;99.90
10417;DHT22;62605;49.432;8.680;2023-07-20T13:32:54;26.70;99.90
10417;DHT22;62605;49.432;8.680;2023-07-20T13:35:21;27.30;99.90
10417;DHT22;62605;49.432;8.680;2023-07-20T13:37:50;27.70;99.90
10417;DHT22;62605;49.432;8.680;2023-07-20T13:40:17;27.20;99.90
10417;DHT22;62605;49.432;8.680;2023-07-20T13:42:45;27.60;99.90
10417;DHT22;62605;49.432;8.680;2023-07-20T13:45:12;27.70;99.90
10417;DHT22;62605;49.432;8.680;2023-07-20T13:47:39;27.70;99.90
10417;DHT22;62605;49.432;8.680;2023-07-20T13:50:07;27.50;99.90
10417;DHT22;62605;49.432;8.680;2023-07-20T13:52:34;27.90;99.90
10417;DHT22;62605;49.432;8.680;2023-07-20T13:55:05;28.70;99.90
10417;DHT22;62605;49.432;8.680;2023-07-20T13:57:32;28.70;99.90
10417;DHT22;62605;49.432;8.680;2023-07-20T13:59:59;28.60;99.90
10417;DHT22;62605;49.432;8.680;2023-07-20T14:02:27;28.80;99.90
10417;DHT22;62605;49.432;8.680;2023-07-20T14:04:54;28.70;99.90
10417;DHT22;62605;49.432;8.680;2023-07-20T14:07:22;28.70;99.90
10417;DHT22;62605;49.432;8.680;2023-07-20T14:09:49;29.00;99.90
10417;DHT22;62605;49.432;8.680;2023-07-20T14:12:17;28.70;99.90
10417;DHT22;62605;49.432;8.680;2023-07-20T14:14:45;29.00;99.90
10417;DHT22;62605;49.432;8.680;2023-07-20T14:17:12;28.90;99.90
10417;DHT22;62605;49.432;8.680;2023-07-20T14:19:39;28.80;99.90
10417;DHT22;62605;49.432;8.680;2023-07-20T14:22:06;29.00;99.90
10417;DHT22;62605;49.432;8.680;2023-07-20T14:24:33;28.30;99.90
10417;DHT22;62605;49.432;8.680;2023-07-20T14:27:01;28.50;99.90
10417;DHT22;62605;49.432;8.680;2023-07-20T14:29:30;27.90;99.90
10417;DHT22;62605;49.432;8.680;2023-07-20T14:31:58;28.10;99.90
10417;DHT22;62605;49.432;8.680;2023-07-20T14:34:25;28.40;99.90
10417;DHT22;62605;49.432;8.680;2023-07-20T14:36:52;28.20;99.90
10417;DHT22;62605;49.432;8.680;2023-07-20T14:39:20;28.70;99.90
10417;DHT22;62605;49.432;8.680;2023-07-20T14:41:49;28.10;99.90
10417;DHT22;62605;49.432;8.680;2023-07-20T14:44:16;27.70;99.90
10417;DHT22;62605;49.432;8.680;2023-07-20T14:46:44;27.60;99.90
10417;DHT22;62605;49.432;8.680;2023-07-20T14:49:11;27.90;99.90
10417;DHT22;62605;49.432;8.680;2023-07-20T14:51:39;28.40;99.90
10417;DHT22;62605;49.432;8.680;2023-07-20T14:54:09;28.10;99.90
10417;DHT22;62605;49.432;8.680;2023-07-20T14:56:38;28.00;99.90
10417;DHT22;62605;49.432;8.680;2023-07-20T14:59:05;27.20;99.90
10417;DHT22;62605;49.432;8.680;2023-07-20T15:01:33;26.50;99.90
10417;DHT22;62605;49.432;8.680;2023-07-20T15:04:02;26.50;99.90
10417;DHT22;62605;49.432;8.680;2023-07-20T15:06:30;26.70;99.90
10417;DHT22;62605;49.432;8.680;2023-07-20T15:08:57;27.40;99.90
10417;DHT22;62605;49.432;8.680;2023-07-20T15:11:26;27.70;99.90
10417;DHT22;62605;49.432;8.680;2023-07-20T15:13:53;28.40;99.90
10417;DHT22;62605;49.432;8.680;2023-07-20T15:16:20;28.40;99.90
10417;DHT22;62605;49.432;8.680;2023-07-20T15:18:48;28.70;99.90
10417;DHT22;62605;49.432;8.680;2023-07-20T15:21:16;28.30;99.90
10417;DHT22;62605;49.432;8.680;2023-07-20T15:23:44;28.10;99.90
10417;DHT22;62605;49.432;8.680;2023-07-20T15:26:11;28.20;99.90
10417;DHT22;62605;49.432;8.680;2023-07-20T15:28:39;28.20;99.90
10417;DHT22;62605;49.432;8.680;2023-07-20T15:31:06;28.20;99.90
10417;DHT22;62605;49.432;8.680;2023-07-20T15:33:33;27.90;99.90
10417;DHT22;62605;49.432;8.680;2023-07-20T15:36:00;27.90;99.90
10417;DHT22;62605;49.432;8.680;2023-07-20T15:38:28;28.20;99.90
10417;DHT22;62605;49.432;8.680;2023-07-20T15:40:55;28.60;99.90
10417;DHT22;62605;49.432;8.680;2023-07-20T15:43:26;28.90;99.90
10417;DHT22;62605;49.432;8.680;2023-07-20T15:46:05;28.80;99.90
10417;DHT22;62605;49.432;8.680;2023-07-20T15:48:48;29.30;99.90
10417;DHT22;62605;49.432;8.680;2023-07-20T15:51:16;29.70;99.90
10417;DHT22;62605;49.432;8.680;2023-07-20T15:53:44;30.00;99.90
10417;DHT22;62605;49.432;8.680;2023-07-20T15:56:13;29.70;99.90
10417;DHT22;62605;49.432;8.680;2023-07-20T15:58:40;29.40;99.90
10417;DHT22;62605;49.432;8.680;2023-07-20T16:01:07;29.40;99.90
10417;DHT22;62605;49.432;8.680;2023-07-20T16:03:34;29.50;99.90
10417;DHT22;62605;49.432;8.680;2023-07-20T16:06:01;29.90;99.90
10417;DHT22;62605;49.432;8.680;2023-07-20T16:08:29;29.40;99.90
10417;DHT22;62605;49.432;8.680;2023-07-20T16:10:58;29.10;99.90